Time;durP1;ratioP1;P1;durP2;ratioP2;P2;SDS_P1;SDS_P2;PMS_P1;PMS_P2;Temp;Humidity;BMP_temperature;BMP_pressure;BME280_temperature;BME280_humidity;BME280_pressure;Samples;Min_cycle;Max_cycle;Signal;HPM_P1;HPM_P2
2022/03/28 00:00:21;;;;;;;32.40;17.33;;;;;;;4.36;56.61;97007.59;10322614;28;97687;-63
2022/03/28 00:05:24;;;;;;;19.40;10.70;;;;;;;4.36;56.02;96997.25;10320465;28;99042;-62
2022/03/28 00:10:27;;;;;;;14.70;8.75;;;;;;;4.32;56.02;97006.13;10325215;28;96783;-62
2022/03/28 00:15:32;;;;;;;11.40;7.57;;;;;;;4.14;57.54;96993.34;10312924;28;98451;-63
2022/03/28 00:20:34;;;;;;;11.17;8.20;;;;;;;3.94;57.34;96980.75;10321463;28;97251;-63
2022/03/28 00:25:37;;;;;;;10.13;7.20;;;;;;;3.93;57.12;96979.06;10314409;28;98967;-62
2022/03/28 00:30:42;;;;;;;11.90;7.97;;;;;;;3.93;57.44;96973.91;10324053;28;97887;-63
2022/03/28 00:35:45;;;;;;;11.13;6.75;;;;;;;3.98;56.79;96972.72;10311477;28;98771;-63
2022/03/28 00:40:48;;;;;;;9.60;6.78;;;;;;;4.04;56.38;96976.72;10326797;28;98325;-62
2022/03/28 00:45:52;;;;;;;11.32;6.72;;;;;;;4.05;57.07;96964.59;10318041;28;98407;-62
2022/03/28 00:50:57;;;;;;;13.20;7.45;;;;;;;3.96;56.77;96964.22;10320328;28;98791;-62
2022/03/28 00:56:00;;;;;;;12.23;7.80;;;;;;;3.84;56.63;96964.94;10307108;28;98214;-62
2022/03/28 01:01:04;;;;;;;12.80;7.22;;;;;;;3.68;57.40;96959.81;10320637;28;98280;-63
2022/03/28 01:06:08;;;;;;;10.07;7.18;;;;;;;3.69;57.47;96953.75;10325347;28;98214;-62
2022/03/28 01:11:11;;;;;;;12.55;7.97;;;;;;;3.64;56.62;96961.75;10321649;28;96773;-62
2022/03/28 01:16:15;;;;;;;13.52;8.10;;;;;;;3.59;56.85;96950.00;10318844;28;98321;-62
2022/03/28 01:21:19;;;;;;;11.40;7.60;;;;;;;3.50;57.30;96953.09;10321255;28;100203;-62
2022/03/28 01:26:22;;;;;;;15.80;9.43;;;;;;;3.36;57.79;96954.72;10323626;28;97821;-62
2022/03/28 01:31:25;;;;;;;20.48;12.75;;;;;;;3.30;58.63;96949.88;10316299;28;96920;-62
2022/03/28 01:36:31;;;;;;;13.32;8.85;;;;;;;3.18;59.23;96940.22;10327013;28;96945;-62
2022/03/28 01:41:34;;;;;;;15.35;9.45;;;;;;;3.23;58.52;96943.41;10318912;28;97941;-62
2022/03/28 01:46:40;;;;;;;14.02;9.43;;;;;;;3.17;59.85;96943.72;10314578;28;99887;-62
2022/03/28 01:51:46;;;;;;;15.27;8.27;;;;;;;3.16;60.04;96935.16;10322003;28;96894;-62
2022/03/28 01:56:49;;;;;;;9.70;6.85;;;;;;;3.06;58.99;96941.75;10316774;28;97839;-62
2022/03/28 02:01:51;;;;;;;11.55;7.40;;;;;;;2.95;59.13;96932.00;10315036;28;96980;-62
2022/03/28 02:06:56;;;;;;;9.85;6.90;;;;;;;2.89;60.13;96932.31;10325741;28;96829;-62
2022/03/28 02:11:59;;;;;;;11.52;7.10;;;;;;;2.95;59.81;96938.94;10318780;28;96907;-62
2022/03/28 02:17:01;;;;;;;10.25;6.63;;;;;;;2.92;59.75;96928.75;10325693;28;105203;-62
2022/03/28 02:22:07;;;;;;;14.57;7.95;;;;;;;2.79;60.47;96921.69;10327597;28;97525;-62
2022/03/28 02:27:10;;;;;;;11.88;7.35;;;;;;;2.82;59.83;96918.09;10331640;28;96781;-62
2022/03/28 02:32:14;;;;;;;12.68;8.07;;;;;;;2.79;59.48;96918.25;10329653;28;97191;-62
2022/03/28 02:37:18;;;;;;;13.15;7.97;;;;;;;2.75;60.25;96912.44;10319841;28;98761;-63
2022/03/28 02:42:22;;;;;;;12.50;7.95;;;;;;;2.76;59.79;96908.13;10324842;28;98364;-62
2022/03/28 02:47:25;;;;;;;11.07;7.22;;;;;;;2.72;59.60;96906.59;10326197;28;97705;-62
2022/03/28 02:52:29;;;;;;;11.48;7.13;;;;;;;2.59;58.55;96902.09;10329183;28;97648;-62
2022/03/28 02:57:32;;;;;;;12.48;7.65;;;;;;;2.59;59.84;96904.69;10326465;28;98799;-62
2022/03/28 03:02:36;;;;;;;12.32;7.50;;;;;;;2.46;60.21;96906.28;10324427;28;96844;-62
2022/03/28 03:07:41;;;;;;;12.85;8.20;;;;;;;2.19;61.51;96904.22;10326553;28;96848;-62
2022/03/28 03:12:44;;;;;;;11.65;7.72;;;;;;;2.01;61.84;96910.31;10322555;28;98804;-62
2022/03/28 03:17:48;;;;;;;12.25;7.80;;;;;;;1.98;62.75;96905.34;10317913;28;96810;-62
2022/03/28 03:22:52;;;;;;;12.20;8.10;;;;;;;1.94;63.00;96905.50;10317092;28;100208;-62
2022/03/28 03:27:57;;;;;;;15.35;8.57;;;;;;;1.84;63.38;96893.16;10316295;28;98453;-62
2022/03/28 03:33:00;;;;;;;17.33;8.83;;;;;;;1.86;62.74;96894.72;10318452;28;97554;-62
2022/03/28 03:38:04;;;;;;;12.40;7.80;;;;;;;1.82;63.03;96890.66;10321890;28;98321;-62
2022/03/28 03:43:07;;;;;;;13.60;8.70;;;;;;;1.82;63.02;96890.66;10315367;28;98811;-62
2022/03/28 03:48:10;;;;;;;13.60;7.97;;;;;;;1.90;62.52;96888.53;10311884;28;98563;-62
2022/03/28 03:53:15;;;;;;;19.98;9.45;;;;;;;2.00;62.48;96895.78;10315580;28;97767;-62
2022/03/28 03:58:17;;;;;;;12.67;7.67;;;;;;;2.02;61.61;96896.53;10317452;28;98685;-62
2022/03/28 04:03:20;;;;;;;12.30;7.65;;;;;;;2.02;61.84;96899.94;10312328;28;97688;-62
2022/03/28 04:08:26;;;;;;;14.18;8.70;;;;;;;1.88;61.70;96900.63;10316821;28;97732;-62
2022/03/28 04:13:29;;;;;;;13.13;8.50;;;;;;;1.81;62.25;96901.84;10309736;28;98863;-62
2022/03/28 04:18:32;;;;;;;16.13;8.25;;;;;;;1.79;62.07;96901.09;10321778;28;98081;-62
2022/03/28 04:23:36;;;;;;;11.13;7.70;;;;;;;1.70;62.19;96904.16;10330166;28;97590;-62
2022/03/28 04:28:39;;;;;;;13.18;7.65;;;;;;;1.69;61.82;96903.31;10323055;28;98839;-61
2022/03/28 04:33:42;;;;;;;13.65;7.97;;;;;;;1.61;62.70;96902.00;10321633;28;98681;-62
2022/03/28 04:38:46;;;;;;;12.45;8.10;;;;;;;1.44;62.74;96903.69;10321958;28;97942;-61
2022/03/28 04:43:49;;;;;;;15.77;8.20;;;;;;;1.38;62.24;96906.56;10321526;28;98322;-62
2022/03/28 04:48:52;;;;;;;13.63;7.90;;;;;;;1.34;62.21;96900.72;10320439;28;97818;-62
2022/03/28 04:53:56;;;;;;;13.60;8.18;;;;;;;1.31;62.58;96902.63;10320247;28;98350;-62
2022/03/28 04:58:59;;;;;;;15.32;9.32;;;;;;;1.14;63.27;96895.69;10319765;28;98678;-62
2022/03/28 05:04:02;;;;;;;12.35;8.45;;;;;;;0.99;63.97;96902.44;10316571;28;98933;-62
2022/03/28 05:09:06;;;;;;;14.10;9.00;;;;;;;0.91;64.93;96900.19;10317052;28;99004;-61
2022/03/28 05:14:09;;;;;;;14.48;8.85;;;;;;;0.88;64.80;96907.22;10318305;28;97512;-61
2022/03/28 05:19:12;;;;;;;13.70;9.18;;;;;;;0.87;65.24;96913.31;10321401;28;98330;-61
2022/03/28 05:24:17;;;;;;;16.30;9.32;;;;;;;0.84;64.90;96919.41;10318355;28;97743;-62
2022/03/28 05:29:23;;;;;;;15.98;8.73;;;;;;;0.88;64.52;96927.81;10313555;28;97528;-61
2022/03/28 05:34:28;;;;;;;12.85;7.47;;;;;;;0.89;64.78;96925.16;10316040;28;97640;-62
2022/03/28 05:39:33;;;;;;;16.53;8.90;;;;;;;0.85;65.91;96933.13;10314801;28;98808;-63
2022/03/28 05:44:37;;;;;;;15.20;9.07;;;;;;;0.77;66.15;96931.72;10325802;28;98824;-61
2022/03/28 05:49:40;;;;;;;14.45;9.35;;;;;;;0.74;66.38;96934.44;10322603;28;99081;-61
2022/03/28 05:54:45;;;;;;;14.75;8.32;;;;;;;0.87;66.24;96933.88;10327474;28;98026;-61
2022/03/28 05:59:48;;;;;;;15.05;8.52;;;;;;;1.12;65.48;96936.97;10317851;28;97638;-62
2022/03/28 06:04:51;;;;;;;18.25;9.65;;;;;;;1.31;64.38;96930.94;10315884;28;97623;-61
2022/03/28 06:09:56;;;;;;;14.20;9.35;;;;;;;1.41;64.50;96934.72;10319382;28;98463;-62
2022/03/28 06:14:59;;;;;;;13.52;8.07;;;;;;;1.55;63.42;96932.31;10326475;28;98080;-61
2022/03/28 06:20:03;;;;;;;19.83;9.38;;;;;;;1.58;64.51;96931.34;10330866;28;98142;-62
2022/03/28 06:25:08;;;;;;;17.10;9.68;;;;;;;1.74;64.32;96934.00;10327175;28;96899;-61
2022/03/28 06:30:31;;;;;;;13.83;9.07;;;;;;;2.06;63.76;96934.09;10322925;28;98489;-61
2022/03/28 06:35:34;;;;;;;15.05;8.45;;;;;;;2.28;62.84;96937.25;10319945;28;98591;-61
2022/03/28 06:40:39;;;;;;;13.52;8.23;;;;;;;2.44;62.68;96934.72;10323733;28;102033;-62
2022/03/28 06:45:42;;;;;;;15.03;9.30;;;;;;;2.69;62.57;96936.00;10326712;28;98397;-61
2022/03/28 06:50:45;;;;;;;15.77;8.85;;;;;;;2.94;62.64;96938.06;10319863;28;100667;-62
2022/03/28 06:55:49;;;;;;;12.32;8.35;;;;;;;3.20;60.94;96933.22;10302548;28;97174;-61
2022/03/28 07:00:53;;;;;;;17.80;9.38;;;;;;;3.39;60.55;96920.94;10317124;28;97476;-62
2022/03/28 07:05:57;;;;;;;15.52;9.55;;;;;;;3.57;60.27;96923.41;10324092;28;98627;-62
2022/03/28 07:11:02;;;;;;;15.15;8.93;;;;;;;3.78;59.50;96919.59;10310998;28;99980;-62
2022/03/28 07:16:05;;;;;;;17.58;9.45;;;;;;;4.01;58.99;96920.84;10322644;28;96901;-61
2022/03/28 07:21:09;;;;;;;18.00;10.52;;;;;;;4.27;57.50;96920.22;10314203;28;98784;-61
2022/03/28 07:26:14;;;;;;;20.25;11.75;;;;;;;4.45;57.46;96919.09;10326302;28;96841;-61
2022/03/28 07:31:18;;;;;;;18.80;9.65;;;;;;;4.68;56.80;96909.94;10305628;28;96900;-61
2022/03/28 07:36:22;;;;;;;18.88;11.23;;;;;;;4.99;57.41;96912.34;10321164;28;96840;-61
2022/03/28 07:41:26;;;;;;;19.40;11.45;;;;;;;5.30;57.57;96906.06;10303251;28;96937;-62
2022/03/28 07:46:29;;;;;;;18.50;11.80;;;;;;;5.71;56.85;96903.38;10303649;28;96844;-62
2022/03/28 07:51:32;;;;;;;17.48;10.18;;;;;;;6.03;56.18;96905.56;10312477;28;96729;-61
2022/03/28 07:56:37;;;;;;;18.48;10.55;;;;;;;6.12;55.88;96892.91;10310382;28;96821;-61
2022/03/28 08:01:43;;;;;;;19.85;10.13;;;;;;;6.30;55.71;96902.03;10305831;28;96906;-61
2022/03/28 08:06:46;;;;;;;19.52;10.60;;;;;;;6.47;55.47;96896.53;10311802;28;96998;-62
2022/03/28 08:11:50;;;;;;;16.73;9.98;;;;;;;6.73;54.37;96891.28;10302166;28;96906;-61
2022/03/28 08:16:55;;;;;;;19.17;11.02;;;;;;;7.05;54.84;96889.97;10304158;28;96874;-62
2022/03/28 08:21:58;;;;;;;14.90;9.83;;;;;;;7.41;53.87;96886.47;10329669;28;97998;-62
2022/03/28 08:27:03;;;;;;;17.58;9.40;;;;;;;7.62;52.87;96881.47;10329630;28;97645;-61
2022/03/28 08:32:06;;;;;;;16.73;10.27;;;;;;;7.76;52.59;96872.66;10327635;28;98034;-62
2022/03/28 08:37:14;;;;;;;21.27;10.55;;;;;;;7.88;52.74;96871.72;10316358;28;96817;-61
2022/03/28 08:42:20;;;;;;;14.85;9.60;;;;;;;8.08;52.24;96862.41;10303446;28;96760;-61
2022/03/28 08:47:24;;;;;;;16.50;10.65;;;;;;;8.32;52.62;96867.50;10301082;28;101926;-61
2022/03/28 08:52:27;;;;;;;19.50;11.03;;;;;;;8.55;52.42;96872.69;10309657;28;97233;-62
2022/03/28 08:57:31;;;;;;;17.70;11.32;;;;;;;8.71;52.71;96873.16;10330452;28;96884;-61
2022/03/28 09:02:41;;;;;;;17.00;10.10;;;;;;;9.02;51.39;96857.72;10335425;28;97020;-61
2022/03/28 09:07:46;;;;;;;15.48;10.70;;;;;;;9.22;51.26;96856.09;10308287;28;96876;-61
2022/03/28 09:13:01;;;;;;;20.65;11.02;;;;;;;9.31;50.87;96851.91;10318826;28;97141;-61
2022/03/28 09:18:04;;;;;;;;;;;;;;;9.62;51.15;96839.81;10318204;28;97067;-62
2022/03/28 09:23:26;;;;;;;18.10;11.13;;;;;;;9.82;49.93;96838.19;10306928;28;98015;-62
2022/03/28 09:28:48;;;;;;;18.02;10.60;;;;;;;9.92;49.28;96834.78;10303699;28;97064;-61
2022/03/28 09:33:52;;;;;;;18.20;10.93;;;;;;;9.91;48.59;96822.72;10314095;28;96755;-61
2022/03/28 09:38:56;;;;;;;19.67;11.43;;;;;;;10.09;48.42;96815.91;10311113;28;96932;-62
2022/03/28 09:44:00;;;;;;;16.52;11.10;;;;;;;10.40;47.92;96813.31;10318481;28;97006;-62
2022/03/28 09:49:04;;;;;;;16.80;11.03;;;;;;;10.66;47.51;96810.22;10308213;28;96943;-61
2022/03/28 09:54:25;;;;;;;18.50;10.82;;;;;;;10.83;46.39;96801.72;10328106;28;96992;-62
2022/03/28 09:59:37;;;;;;;20.90;11.70;;;;;;;11.14;46.06;96802.44;10334521;28;96952;-62
2022/03/28 10:04:41;;;;;;;17.83;11.38;;;;;;;11.28;46.17;96803.81;10322691;28;96873;-62
2022/03/28 10:09:45;;;;;;;17.83;11.00;;;;;;;11.55;45.04;96791.81;10330761;28;99668;-62
2022/03/28 10:14:54;;;;;;;19.42;11.38;;;;;;;11.71;43.55;96784.22;10334382;28;96799;-62
2022/03/28 10:19:57;;;;;;;18.02;11.02;;;;;;;11.85;42.31;96769.03;10318353;28;96808;-62
2022/03/28 10:25:05;;;;;;;17.00;10.80;;;;;;;12.07;40.19;96767.84;10319495;28;96772;-62
2022/03/28 10:30:22;;;;;;;18.73;11.45;;;;;;;12.31;39.72;96759.47;10311509;28;96734;-62
2022/03/28 10:35:25;;;;;;;18.40;11.50;;;;;;;12.52;40.11;96755.78;10319284;28;96985;-62
2022/03/28 10:40:29;;;;;;;18.58;11.75;;;;;;;12.65;40.46;96754.47;10318736;28;96940;-62
2022/03/28 10:45:36;;;;;;;19.90;11.47;;;;;;;12.70;40.58;96743.53;10313382;28;96806;-62
2022/03/28 10:50:45;;;;;;;23.10;12.80;;;;;;;12.92;40.12;96733.59;10317380;28;96992;-62
2022/03/28 10:55:50;;;;;;;19.25;12.25;;;;;;;13.27;39.89;96718.81;10333169;28;96847;-61
2022/03/28 11:01:23;;;;;;;19.15;11.77;;;;;;;13.56;40.02;96713.25;10327727;28;96752;-61
2022/03/28 11:06:46;;;;;;;16.98;10.98;;;;;;;13.84;38.97;96706.03;10324466;28;96906;-62
2022/03/28 11:11:56;;;;;;;16.63;11.45;;;;;;;14.17;36.90;96700.91;10318527;28;97107;-61
2022/03/28 11:17:13;;;;;;;17.33;11.07;;;;;;;14.33;35.40;96694.91;10313437;28;96921;-61
2022/03/28 11:22:17;;;;;;;14.52;10.57;;;;;;;14.64;36.00;96682.00;10317047;28;96833;-62
2022/03/28 11:27:22;;;;;;;16.52;10.70;;;;;;;14.83;34.61;96675.63;10312595;28;97453;-62
2022/03/28 11:32:30;;;;;;;14.35;10.50;;;;;;;14.87;34.60;96676.09;10303566;28;96966;-61
2022/03/28 11:37:33;;;;;;;16.10;10.63;;;;;;;15.04;34.38;96656.69;10314411;28;96954;-62
2022/03/28 11:42:38;;;;;;;16.17;11.30;;;;;;;15.31;33.77;96647.63;10307324;28;96769;-61
2022/03/28 11:47:52;;;;;;;15.32;10.55;;;;;;;15.55;33.07;96632.78;10320019;28;96826;-62
2022/03/28 11:52:55;;;;;;;14.27;10.43;;;;;;;15.65;33.43;96629.97;10314656;28;96891;-61
2022/03/28 11:58:17;;;;;;;18.00;11.25;;;;;;;15.81;32.17;96621.22;10319547;28;98842;-62
2022/03/28 12:03:21;;;;;;;18.10;10.98;;;;;;;15.97;32.16;96612.41;10318286;28;96859;-62
2022/03/28 12:08:24;;;;;;;14.65;9.82;;;;;;;16.15;32.02;96607.66;10330375;28;96966;-62
2022/03/28 12:13:27;;;;;;;15.00;10.77;;;;;;;16.46;32.02;96598.09;10300198;28;96943;-62
2022/03/28 12:18:31;;;;;;;17.15;11.02;;;;;;;16.66;30.88;96593.16;10308434;28;96793;-62
2022/03/28 12:23:34;;;;;;;13.77;9.73;;;;;;;16.74;30.87;96585.19;10303304;28;98786;-62
2022/03/28 12:28:43;;;;;;;15.23;10.05;;;;;;;16.95;30.22;96568.69;10314114;28;97023;-61
2022/03/28 12:33:47;;;;;;;12.60;9.40;;;;;;;17.21;30.06;96562.19;10314150;28;96932;-62
2022/03/28 12:38:58;;;;;;;13.52;9.27;;;;;;;17.69;29.04;96546.78;10336904;28;96718;-62
2022/03/28 12:44:04;;;;;;;11.40;8.95;;;;;;;17.88;28.60;96546.22;10305548;28;97031;-62
2022/03/28 12:49:11;;;;;;;17.17;8.70;;;;;;;17.87;27.57;96534.00;10310893;28;96920;-62
2022/03/28 12:54:17;;;;;;;10.15;8.20;;;;;;;18.09;26.64;96508.41;10318166;28;96802;-62
2022/03/28 12:59:22;;;;;;;11.63;8.98;;;;;;;18.32;26.67;96517.97;10307633;28;96861;-63
2022/03/28 13:04:26;;;;;;;11.85;8.77;;;;;;;18.77;26.86;96502.66;10312356;28;96980;-62
2022/03/28 13:09:30;;;;;;;;;;;;;;;19.27;27.43;96489.34;10335009;28;96916;-63
2022/03/28 13:14:33;;;;;;;11.38;8.70;;;;;;;19.60;25.69;96492.16;10336228;28;97019;-62
2022/03/28 13:19:40;;;;;;;12.80;8.10;;;;;;;19.98;24.92;96475.75;10335125;28;96818;-62
2022/03/28 13:24:43;;;;;;;9.90;7.53;;;;;;;20.53;24.70;96466.84;10328449;28;96983;-62
2022/03/28 13:29:45;;;;;;;11.23;8.45;;;;;;;21.56;23.30;96454.75;10310543;28;96949;-62
2022/03/28 13:34:50;;;;;;;9.95;7.70;;;;;;;23.16;21.66;96441.03;10316233;28;96977;-62
2022/03/28 13:39:53;;;;;;;7.70;6.70;;;;;;;24.71;20.40;96432.50;10320440;28;97028;-63
2022/03/28 13:44:55;;;;;;;8.05;6.28;;;;;;;25.28;18.65;96426.53;10311383;28;97165;-62
2022/03/28 13:50:00;;;;;;;9.93;8.15;;;;;;;25.75;18.43;96421.03;10327216;28;102844;-63
2022/03/28 13:55:03;;;;;;;8.93;8.02;;;;;;;26.53;18.62;96401.75;10317360;28;96901;-63
2022/03/28 14:00:08;;;;;;;7.93;7.13;;;;;;;27.25;18.38;96392.84;10332200;28;97008;-63
2022/03/28 14:05:32;;;;;;;9.25;7.95;;;;;;;27.88;17.51;96388.97;10319761;28;96848;-63
2022/03/28 14:10:35;;;;;;;10.18;8.35;;;;;;;27.83;17.18;96382.47;10335170;28;96767;-62
2022/03/28 14:15:39;;;;;;;10.02;8.30;;;;;;;27.64;17.16;96373.97;10333213;28;96980;-63
2022/03/28 14:20:43;;;;;;;10.75;7.97;;;;;;;27.20;17.42;96368.63;10317593;28;98096;-62
2022/03/28 14:25:46;;;;;;;8.00;7.15;;;;;;;27.93;17.16;96364.84;10317283;28;96907;-63
2022/03/28 14:30:49;;;;;;;9.40;7.63;;;;;;;28.39;15.81;96354.47;10333459;28;96951;-63
2022/03/28 14:35:53;;;;;;;7.40;6.60;;;;;;;29.33;15.53;96339.34;10321039;28;96826;-63
2022/03/28 14:40:57;;;;;;;8.05;7.25;;;;;;;29.51;15.36;96329.16;10301380;28;96713;-63
2022/03/28 14:51:22;;;;;;;8.00;6.85;;;;;;;29.62;14.98;96325.44;10317711;28;96873;-63
2022/03/28 14:56:25;;;;;;;8.30;6.55;;;;;;;30.27;14.73;96314.16;10330846;28;97006;-63
2022/03/28 15:01:30;;;;;;;7.40;6.60;;;;;;;30.06;14.85;96308.78;10306324;28;96995;-63
2022/03/28 15:06:37;;;;;;;7.22;6.53;;;;;;;28.71;15.42;96294.47;10319529;28;99692;-63
2022/03/28 15:11:41;;;;;;;7.70;6.90;;;;;;;28.53;15.02;96299.22;10332383;28;96932;-63
2022/03/28 15:16:44;;;;;;;7.13;6.43;;;;;;;29.47;14.57;96288.53;10324553;28;96852;-63
2022/03/28 15:21:49;;;;;;;7.30;6.60;;;;;;;29.93;14.59;96277.00;10309351;28;97027;-64
2022/03/28 15:26:52;;;;;;;7.72;7.00;;;;;;;29.91;14.74;96279.16;10308116;28;96693;-63
2022/03/28 15:31:55;;;;;;;7.82;6.50;;;;;;;29.48;14.81;96262.41;10300472;28;96976;-63
2022/03/28 15:36:59;;;;;;;9.30;6.68;;;;;;;29.21;14.90;96260.78;10314509;28;96897;-63
2022/03/28 15:42:02;;;;;;;7.50;6.65;;;;;;;28.66;15.63;96246.06;10305548;28;97903;-63
2022/03/28 15:47:05;;;;;;;;;;;;;;;27.64;16.67;96249.72;10328126;28;98725;-63
2022/03/28 15:52:09;;;;;;;7.03;6.32;;;;;;;26.83;16.60;96242.44;10303437;28;96920;-62
2022/03/28 15:57:12;;;;;;;9.02;7.38;;;;;;;27.00;16.19;96235.13;10324308;28;96957;-63
2022/03/28 16:02:15;;;;;;;7.35;6.65;;;;;;;27.12;16.09;96222.38;10317284;28;97857;-62
2022/03/28 16:07:20;;;;;;;7.53;6.03;;;;;;;26.95;15.80;96216.31;10326487;28;96898;-64
2022/03/28 16:12:22;;;;;;;8.18;6.45;;;;;;;26.21;16.04;96206.00;10329834;28;97118;-63
2022/03/28 16:17:25;;;;;;;7.17;6.10;;;;;;;26.05;16.24;96205.84;10330717;28;96944;-63
2022/03/28 16:22:30;;;;;;;7.17;6.17;;;;;;;25.17;16.33;96200.97;10317873;28;96988;-63
2022/03/28 16:27:33;;;;;;;6.75;6.05;;;;;;;24.80;16.55;96198.69;10313057;28;96854;-64
2022/03/28 16:32:36;;;;;;;7.50;6.00;;;;;;;24.81;16.81;96194.19;10302840;28;96994;-63
2022/03/28 16:37:41;;;;;;;7.07;6.03;;;;;;;24.40;16.68;96193.34;10323224;28;97115;-63
2022/03/28 16:42:44;;;;;;;7.97;6.40;;;;;;;24.29;16.55;96190.47;10328582;28;96997;-62
2022/03/28 16:47:48;;;;;;;7.95;6.28;;;;;;;24.04;16.76;96179.25;10329098;28;96945;-62
2022/03/28 16:52:55;;;;;;;8.25;5.90;;;;;;;23.45;16.90;96179.28;10317500;28;98699;-63
2022/03/28 16:57:58;;;;;;;7.03;5.97;;;;;;;22.93;16.97;96185.97;10329212;28;96936;-63
2022/03/28 17:03:02;;;;;;;7.70;5.87;;;;;;;22.23;17.66;96181.13;10317175;28;99032;-63
2022/03/28 17:08:08;;;;;;;6.07;4.97;;;;;;;21.71;18.23;96178.00;10321822;28;96949;-62
2022/03/28 17:13:11;;;;;;;7.53;5.50;;;;;;;21.16;18.81;96183.97;10326638;28;96861;-63
2022/03/28 17:18:14;;;;;;;6.30;5.53;;;;;;;20.63;19.09;96180.56;10329828;28;98619;-63
2022/03/28 17:23:18;;;;;;;7.13;5.50;;;;;;;19.91;19.25;96175.34;10327565;28;97819;-62
2022/03/28 17:28:21;;;;;;;;;;;;;;;19.19;20.69;96182.31;10335310;28;97040;-63
2022/03/28 17:33:24;;;;;;;30.95;19.40;;;;;;;18.47;21.56;96169.56;10335020;28;98407;-64
2022/03/28 17:38:28;;;;;;;19.90;14.68;;;;;;;17.87;23.27;96174.59;10327097;28;98053;-63
2022/03/28 17:43:32;;;;;;;13.18;9.90;;;;;;;17.27;24.15;96171.53;10325932;28;97210;-62
2022/03/28 17:48:34;;;;;;;9.15;6.72;;;;;;;16.54;25.15;96166.38;10334239;28;96802;-62
2022/03/28 17:53:42;;;;;;;10.30;6.40;;;;;;;15.96;26.05;96171.56;10332745;28;97125;-62
2022/03/28 17:58:45;;;;;;;11.18;9.43;;;;;;;15.48;27.27;96163.19;10334380;28;96893;-62
2022/03/28 18:03:48;;;;;;;13.57;10.48;;;;;;;15.05;27.54;96163.72;10333103;28;96963;-62
2022/03/28 18:08:53;;;;;;;10.13;7.30;;;;;;;14.60;29.29;96161.94;10315185;28;100189;-63
2022/03/28 18:13:56;;;;;;;7.93;5.60;;;;;;;14.30;29.54;96154.69;10327168;28;98663;-63
2022/03/28 18:18:59;;;;;;;10.13;6.20;;;;;;;13.97;29.50;96164.56;10334115;28;97120;-62
2022/03/28 18:24:03;;;;;;;17.38;5.53;;;;;;;13.67;31.88;96164.31;10330500;28;96871;-62
2022/03/28 18:29:08;;;;;;;11.75;6.03;;;;;;;13.54;32.93;96164.84;10333149;28;97106;-62
2022/03/28 18:34:12;;;;;;;15.00;6.13;;;;;;;13.27;33.92;96160.78;10329689;28;100205;-62
2022/03/28 18:39:16;;;;;;;13.45;7.03;;;;;;;13.15;34.34;96162.97;10339531;28;96755;-62
2022/03/28 18:44:20;;;;;;;12.53;6.83;;;;;;;13.07;33.50;96173.47;10330325;28;96815;-62
2022/03/28 18:49:23;;;;;;;10.10;6.22;;;;;;;12.83;34.32;96177.69;10328717;28;96984;-62
2022/03/28 18:54:27;;;;;;;12.02;6.00;;;;;;;12.61;36.00;96165.22;10323429;28;97886;-62
2022/03/28 18:59:35;;;;;;;12.43;6.00;;;;;;;12.15;36.80;96168.22;10314318;28;98403;-62
2022/03/28 19:04:38;;;;;;;10.70;7.10;;;;;;;11.71;38.14;96161.38;10320311;28;96880;-61
2022/03/28 19:09:43;;;;;;;11.43;6.43;;;;;;;11.35;38.29;96156.25;10325891;28;98496;-62
2022/03/28 19:14:46;;;;;;;10.57;6.30;;;;;;;11.25;37.46;96165.97;10315991;28;97931;-62
2022/03/28 19:19:49;;;;;;;12.73;6.68;;;;;;;11.16;37.78;96167.72;10325772;28;97430;-62
2022/03/28 19:24:54;;;;;;;9.65;6.65;;;;;;;11.08;38.09;96165.03;10321527;28;98908;-62
2022/03/28 19:29:57;;;;;;;13.23;6.83;;;;;;;11.03;38.19;96166.47;10325156;28;97090;-62
2022/03/28 19:35:02;;;;;;;11.30;5.90;;;;;;;10.73;38.55;96160.69;10322857;28;98233;-62
2022/03/28 19:40:08;;;;;;;9.82;5.78;;;;;;;10.48;38.77;96163.09;10321913;28;97967;-62
2022/03/28 19:45:12;;;;;;;11.55;6.68;;;;;;;10.32;39.33;96162.91;10318826;28;96833;-62
2022/03/28 19:50:15;;;;;;;7.75;6.35;;;;;;;10.21;39.30;96171.78;10317335;28;98559;-62
2022/03/28 19:55:19;;;;;;;10.63;6.30;;;;;;;10.11;39.13;96161.38;10315399;28;97741;-63
2022/03/28 20:00:23;;;;;;;12.73;7.50;;;;;;;10.01;39.13;96161.47;10323652;28;98775;-61
2022/03/28 20:05:27;;;;;;;10.32;7.15;;;;;;;9.92;40.49;96158.91;10317765;28;97756;-62
2022/03/28 20:10:31;;;;;;;12.95;9.15;;;;;;;9.62;41.34;96158.22;10321880;28;97308;-62
2022/03/28 20:15:34;;;;;;;7.83;6.33;;;;;;;9.40;41.81;96156.75;10309753;28;100084;-62
2022/03/28 20:20:37;;;;;;;8.70;6.38;;;;;;;9.21;42.00;96165.44;10315119;28;96878;-62
2022/03/28 20:25:42;;;;;;;9.20;6.20;;;;;;;9.11;41.49;96160.28;10322114;28;97129;-62
2022/03/28 20:30:46;;;;;;;8.98;5.80;;;;;;;8.99;41.90;96154.41;10319959;28;104726;-62
2022/03/28 20:35:49;;;;;;;10.68;5.93;;;;;;;8.85;42.21;96147.03;10310641;28;96939;-62
2022/03/28 20:40:53;;;;;;;15.45;5.82;;;;;;;8.88;41.73;96139.75;10323135;28;97263;-61
2022/03/28 20:45:56;;;;;;;8.63;5.50;;;;;;;8.75;42.27;96141.81;10319464;28;97288;-62
2022/03/28 20:51:01;;;;;;;9.43;6.65;;;;;;;8.65;42.33;96147.00;10307137;28;96792;-60
2022/03/28 20:56:06;;;;;;;8.47;5.60;;;;;;;8.39;43.64;96146.75;10322078;28;98234;-62
2022/03/28 21:01:10;;;;;;;8.27;5.57;;;;;;;8.22;43.80;96144.81;10322883;28;98349;-63
2022/03/28 21:06:13;;;;;;;7.63;5.87;;;;;;;8.28;43.86;96139.91;10322256;28;97980;-62
2022/03/28 21:11:18;;;;;;;8.85;6.15;;;;;;;8.21;44.06;96128.38;10326525;28;97376;-62
2022/03/28 21:16:25;;;;;;;7.80;5.45;;;;;;;8.04;44.32;96129.06;10329628;28;97282;-62
2022/03/28 21:21:28;;;;;;;8.40;6.03;;;;;;;7.90;44.44;96131.06;10329658;28;98740;-63
2022/03/28 21:26:33;;;;;;;7.75;5.43;;;;;;;7.83;45.17;96134.34;10317154;28;96840;-62
2022/03/28 21:31:35;;;;;;;8.48;5.50;;;;;;;7.79;45.39;96139.00;10316429;28;98397;-62
2022/03/28 21:36:39;;;;;;;9.27;5.75;;;;;;;7.86;45.02;96124.50;10327873;28;97101;-62
2022/03/28 21:41:43;;;;;;;9.68;5.07;;;;;;;7.64;46.27;96135.13;10324942;28;96850;-63
2022/03/28 21:46:46;;;;;;;9.50;6.03;;;;;;;7.63;45.88;96128.25;10322474;28;97858;-63
2022/03/28 21:51:49;;;;;;;9.50;5.20;;;;;;;7.53;46.17;96139.47;10336710;28;97583;-63
2022/03/28 21:56:53;;;;;;;8.35;6.00;;;;;;;7.43;46.92;96133.41;10332349;28;97148;-63
2022/03/28 22:01:56;;;;;;;7.75;5.22;;;;;;;7.30;47.91;96138.00;10328349;28;96814;-62
2022/03/28 22:06:59;;;;;;;7.88;5.30;;;;;;;7.33;48.36;96137.72;10323803;28;100182;-62
2022/03/28 22:12:04;;;;;;;12.25;5.70;;;;;;;7.33;47.95;96137.72;10331862;28;96939;-62
2022/03/28 22:17:07;;;;;;;8.98;5.03;;;;;;;7.32;48.53;96126.53;10321581;28;96937;-63
2022/03/28 22:22:10;;;;;;;11.05;6.97;;;;;;;7.32;48.72;96123.94;10326670;28;96877;-63
2022/03/28 22:27:14;;;;;;;9.77;7.30;;;;;;;7.22;49.94;96128.25;10321936;28;96833;-63
2022/03/28 22:32:17;;;;;;;10.45;7.45;;;;;;;7.17;49.80;96128.63;10320524;28;98021;-62
2022/03/28 22:37:21;;;;;;;9.43;7.22;;;;;;;7.12;49.95;96125.59;10325541;28;104190;-62
2022/03/28 22:42:25;;;;;;;12.38;6.45;;;;;;;7.24;49.40;96122.94;10328836;28;97764;-63
2022/03/28 22:47:28;;;;;;;8.98;6.35;;;;;;;7.24;49.65;96123.75;10319047;28;97391;-62
2022/03/28 22:52:36;;;;;;;12.05;7.15;;;;;;;7.22;50.16;96131.66;10322244;28;98769;-63
2022/03/28 22:57:41;;;;;;;9.68;7.00;;;;;;;7.20;50.47;96143.97;10325329;28;97248;-63
2022/03/28 23:02:45;;;;;;;9.32;6.45;;;;;;;7.14;50.50;96118.50;10324068;28;97174;-63
2022/03/28 23:07:48;;;;;;;9.25;5.85;;;;;;;7.08;50.75;96118.22;10330052;28;96851;-62
2022/03/28 23:12:52;;;;;;;8.68;6.32;;;;;;;7.11;51.16;96104.94;10328968;28;97961;-62
2022/03/28 23:17:55;;;;;;;9.00;6.23;;;;;;;7.08;51.46;96098.25;10322647;28;96926;-63
2022/03/28 23:22:58;;;;;;;10.15;6.47;;;;;;;7.12;51.31;96094.44;10329453;28;97419;-62
2022/03/28 23:28:03;;;;;;;8.43;6.00;;;;;;;7.14;51.30;96087.31;10307281;28;96844;-62
2022/03/28 23:33:05;;;;;;;7.97;5.40;;;;;;;7.18;51.58;96082.69;10309474;28;101710;-63